Foxridge, Maryland
Current Conditions -  °F | °C
As of 7:54 PM on Friday 31 Oct 2014 (Local Time) from KBWI Reporting Station
Broken Clouds Broken Clouds  
Wind Chill: 48°   Ceiling: 5500
Heat Index: 48°   Visibility: 10mi
Dew Point: 37°   Wind: 0mph
Humidity: 66%   Direction: NA
Pressure: 29.86"   Gusts: NA
Location:  39.3744°N, 76.8156°W
Report Text: KBWI 312354Z 00000KT 10SM BKN055 09/03 A2986 RMK AO2 SLP111 T00890028 10139 20089 58002
Loading
Personal Weather Stations






























Interactive Weather Map New forecast layout! Learn more

10-Day Weather Forecast

Advertisements
Track Severe Weather on mobile